sensor_id;sensor_type;location;lat;lon;timestamp;pressure;altitude;pressure_sealevel;temperature;humidity
33163;BME280;29282;45.656;11.302;2023-05-11T00:01:32;97848.84;;;18.75;59.21
33163;BME280;29282;45.656;11.302;2023-05-11T00:04:00;97847.25;;;18.74;59.22
33163;BME280;29282;45.656;11.302;2023-05-11T00:06:25;97839.03;;;18.74;59.21
33163;BME280;29282;45.656;11.302;2023-05-11T00:08:51;97837.06;;;18.75;59.24
33163;BME280;29282;45.656;11.302;2023-05-11T00:11:16;97836.28;;;18.74;59.20
33163;BME280;29282;45.656;11.302;2023-05-11T00:13:43;97829.97;;;18.74;59.08
33163;BME280;29282;45.656;11.302;2023-05-11T00:16:09;97826.09;;;18.75;59.07
33163;BME280;29282;45.656;11.302;2023-05-11T00:18:34;97819.81;;;18.74;59.08
33163;BME280;29282;45.656;11.302;2023-05-11T00:21:00;97825.31;;;18.74;58.96
33163;BME280;29282;45.656;11.302;2023-05-11T00:23:25;97812.72;;;18.73;59.16
33163;BME280;29282;45.656;11.302;2023-05-11T00:25:51;97819.00;;;18.74;59.25
33163;BME280;29282;45.656;11.302;2023-05-11T00:28:16;97820.94;;;18.73;59.25
33163;BME280;29282;45.656;11.302;2023-05-11T00:30:42;97818.19;;;18.73;58.99
33163;BME280;29282;45.656;11.302;2023-05-11T00:33:08;97805.63;;;18.72;59.27
33163;BME280;29282;45.656;11.302;2023-05-11T00:35:34;97814.66;;;18.73;59.14
33163;BME280;29282;45.656;11.302;2023-05-11T00:37:59;97813.06;;;18.72;59.02
33163;BME280;29282;45.656;11.302;2023-05-11T00:40:25;97818.56;;;18.72;58.96
33163;BME280;29282;45.656;11.302;2023-05-11T00:42:50;97819.34;;;18.72;59.07
33163;BME280;29282;45.656;11.302;2023-05-11T00:45:16;97818.56;;;18.72;59.08
33163;BME280;29282;45.656;11.302;2023-05-11T00:47:41;97819.34;;;18.72;59.07
33163;BME280;29282;45.656;11.302;2023-05-11T00:50:07;97825.97;;;18.71;58.98
33163;BME280;29282;45.656;11.302;2023-05-11T00:52:33;97820.47;;;18.71;58.91
33163;BME280;29282;45.656;11.302;2023-05-11T00:54:59;97825.19;;;18.71;58.96
33163;BME280;29282;45.656;11.302;2023-05-11T00:57:25;97819.69;;;18.71;58.77
33163;BME280;29282;45.656;11.302;2023-05-11T00:59:51;97825.19;;;18.71;59.02
33163;BME280;29282;45.656;11.302;2023-05-11T01:02:17;97818.06;;;18.70;58.99
33163;BME280;29282;45.656;11.302;2023-05-11T01:04:43;97827.09;;;18.70;58.88
33163;BME280;29282;45.656;11.302;2023-05-11T01:07:13;97818.06;;;18.70;58.83
33163;BME280;29282;45.656;11.302;2023-05-11T01:10:22;97818.06;;;18.70;58.88
33163;BME280;29282;45.656;11.302;2023-05-11T01:13:12;97824.34;;;18.70;58.94
33163;BME280;29282;45.656;11.302;2023-05-11T01:15:52;97824.72;;;18.69;58.88
33163;BME280;29282;45.656;11.302;2023-05-11T01:20:56;97826.66;;;18.68;58.72
33163;BME280;29282;45.656;11.302;2023-05-11T01:23:44;97827.47;;;18.69;58.80
33163;BME280;29282;45.656;11.302;2023-05-11T01:31:35;97819.56;;;18.67;58.79
33163;BME280;29282;45.656;11.302;2023-05-11T01:34:08;97809.41;;;18.68;58.78
33163;BME280;29282;45.656;11.302;2023-05-11T01:36:41;97814.06;;;18.67;58.84
33163;BME280;29282;45.656;11.302;2023-05-11T01:39:09;97816.00;;;18.67;58.88
33163;BME280;29282;45.656;11.302;2023-05-11T01:41:38;97807.78;;;18.67;58.77
33163;BME280;29282;45.656;11.302;2023-05-11T01:44:06;97805.03;;;18.67;58.77
33163;BME280;29282;45.656;11.302;2023-05-11T01:46:33;97804.25;;;18.66;58.76
33163;BME280;29282;45.656;11.302;2023-05-11T01:49:01;97811.31;;;18.67;58.80
33163;BME280;29282;45.656;11.302;2023-05-11T01:51:33;97808.56;;;18.67;58.86
33163;BME280;29282;45.656;11.302;2023-05-11T01:54:01;97814.06;;;18.67;58.89
33163;BME280;29282;45.656;11.302;2023-05-11T01:56:29;97806.19;;;18.66;58.70
33163;BME280;29282;45.656;11.302;2023-05-11T01:58:56;97809.72;;;18.66;58.93
33163;BME280;29282;45.656;11.302;2023-05-11T02:01:23;97806.19;;;18.66;58.85
33163;BME280;29282;45.656;11.302;2023-05-11T02:03:51;97811.69;;;18.66;58.75
33163;BME280;29282;45.656;11.302;2023-05-11T02:06:18;97810.88;;;18.65;58.83
33163;BME280;29282;45.656;11.302;2023-05-11T02:08:45;97802.66;;;18.65;58.71
33163;BME280;29282;45.656;11.302;2023-05-11T02:11:12;97797.16;;;18.65;58.82
33163;BME280;29282;45.656;11.302;2023-05-11T02:13:42;97805.41;;;18.65;58.65
33163;BME280;29282;45.656;11.302;2023-05-11T02:16:09;97804.59;;;18.65;58.56
33163;BME280;29282;45.656;11.302;2023-05-11T02:18:38;97796.38;;;18.65;58.79
33163;BME280;29282;45.656;11.302;2023-05-11T02:21:07;97794.44;;;18.65;58.68
33163;BME280;29282;45.656;11.302;2023-05-11T02:23:33;97793.63;;;18.65;58.61
33163;BME280;29282;45.656;11.302;2023-05-11T02:25:59;97793.63;;;18.65;58.70
33163;BME280;29282;45.656;11.302;2023-05-11T02:28:25;97789.28;;;18.64;58.73
33163;BME280;29282;45.656;11.302;2023-05-11T02:30:54;97786.53;;;18.64;58.86
33163;BME280;29282;45.656;11.302;2023-05-11T02:33:24;97780.25;;;18.63;58.61
33163;BME280;29282;45.656;11.302;2023-05-11T02:35:54;97781.88;;;18.64;58.60
33163;BME280;29282;45.656;11.302;2023-05-11T02:38:24;97781.03;;;18.64;58.72
33163;BME280;29282;45.656;11.302;2023-05-11T02:40:56;97771.69;;;18.65;58.54
33163;BME280;29282;45.656;11.302;2023-05-11T02:43:29;97769.28;;;18.63;58.51
33163;BME280;29282;45.656;11.302;2023-05-11T02:45:59;97773.97;;;18.63;58.57
33163;BME280;29282;45.656;11.302;2023-05-11T02:48:27;97763.78;;;18.63;58.60
33163;BME280;29282;45.656;11.302;2023-05-11T02:50:55;97764.94;;;18.62;58.57
33163;BME280;29282;45.656;11.302;2023-05-11T02:53:24;97757.50;;;18.63;58.74
33163;BME280;29282;45.656;11.302;2023-05-11T02:55:55;97759.44;;;18.62;58.51
33163;BME280;29282;45.656;11.302;2023-05-11T02:58:21;97757.50;;;18.63;58.60
33163;BME280;29282;45.656;11.302;2023-05-11T03:00:47;97762.19;;;18.62;58.51
33163;BME280;29282;45.656;11.302;2023-05-11T03:03:12;97753.16;;;18.62;58.47
33163;BME280;29282;45.656;11.302;2023-05-11T03:05:38;97762.19;;;18.62;58.64
33163;BME280;29282;45.656;11.302;2023-05-11T03:08:04;97750.44;;;18.62;58.58
33163;BME280;29282;45.656;11.302;2023-05-11T03:10:30;97755.13;;;18.61;58.43
33163;BME280;29282;45.656;11.302;2023-05-11T03:12:56;97762.19;;;18.62;58.43
33163;BME280;29282;45.656;11.302;2023-05-11T03:15:22;97750.44;;;18.62;58.56
33163;BME280;29282;45.656;11.302;2023-05-11T03:17:49;97755.13;;;18.61;58.52
33163;BME280;29282;45.656;11.302;2023-05-11T03:20:16;97754.28;;;18.61;58.22
33163;BME280;29282;45.656;11.302;2023-05-11T03:22:44;97759.00;;;18.60;58.34
33163;BME280;29282;45.656;11.302;2023-05-11T03:25:11;97758.66;;;18.62;58.44
33163;BME280;29282;45.656;11.302;2023-05-11T03:27:37;97769.97;;;18.60;58.51
33163;BME280;29282;45.656;11.302;2023-05-11T03:30:10;97765.28;;;18.61;58.45
33163;BME280;29282;45.656;11.302;2023-05-11T03:32:36;97761.72;;;18.60;58.30
33163;BME280;29282;45.656;11.302;2023-05-11T03:35:02;97752.72;;;18.60;58.32
33163;BME280;29282;45.656;11.302;2023-05-11T03:37:29;97759.78;;;18.61;58.38
33163;BME280;29282;45.656;11.302;2023-05-11T03:39:59;97757.41;;;18.59;58.60
33163;BME280;29282;45.656;11.302;2023-05-11T03:42:26;97749.16;;;18.59;58.68
33163;BME280;29282;45.656;11.302;2023-05-11T03:44:54;97754.66;;;18.59;58.54
33163;BME280;29282;45.656;11.302;2023-05-11T03:47:23;97752.72;;;18.60;58.36
33163;BME280;29282;45.656;11.302;2023-05-11T03:49:50;97754.66;;;18.59;58.65
33163;BME280;29282;45.656;11.302;2023-05-11T03:52:17;97747.59;;;18.58;58.32
33163;BME280;29282;45.656;11.302;2023-05-11T03:54:44;97744.84;;;18.58;58.26
33163;BME280;29282;45.656;11.302;2023-05-11T03:57:10;97751.13;;;18.59;58.33
33163;BME280;29282;45.656;11.302;2023-05-11T03:59:38;97749.53;;;18.58;58.38
33163;BME280;29282;45.656;11.302;2023-05-11T04:02:03;97753.06;;;18.58;58.37
33163;BME280;29282;45.656;11.302;2023-05-11T04:04:29;97750.31;;;18.58;58.29
33163;BME280;29282;45.656;11.302;2023-05-11T04:06:55;97744.03;;;18.58;58.14
33163;BME280;29282;45.656;11.302;2023-05-11T04:09:21;97740.16;;;18.59;58.37
33163;BME280;29282;45.656;11.302;2023-05-11T04:11:47;97740.47;;;18.57;58.22
33163;BME280;29282;45.656;11.302;2023-05-11T04:14:12;97737.75;;;18.57;58.29
33163;BME280;29282;45.656;11.302;2023-05-11T04:16:40;97755.81;;;18.58;58.34
33163;BME280;29282;45.656;11.302;2023-05-11T04:19:06;97740.84;;;18.55;58.28
33163;BME280;29282;45.656;11.302;2023-05-11T04:21:31;97749.88;;;18.56;58.38
33163;BME280;29282;45.656;11.302;2023-05-11T04:23:57;97746.31;;;18.55;58.38
33163;BME280;29282;45.656;11.302;2023-05-11T04:26:22;97740.84;;;18.55;58.35
33163;BME280;29282;45.656;11.302;2023-05-11T04:28:48;97748.72;;;18.57;58.18
33163;BME280;29282;45.656;11.302;2023-05-11T04:31:13;97747.91;;;18.57;58.27
33163;BME280;29282;45.656;11.302;2023-05-11T04:33:39;97756.16;;;18.57;58.15
33163;BME280;29282;45.656;11.302;2023-05-11T04:36:04;97752.59;;;18.56;58.39
33163;BME280;29282;45.656;11.302;2023-05-11T04:38:33;97752.59;;;18.56;58.04
33163;BME280;29282;45.656;11.302;2023-05-11T04:41:06;97755.34;;;18.56;58.28
33163;BME280;29282;45.656;11.302;2023-05-11T04:43:32;97747.91;;;18.57;58.29
33163;BME280;29282;45.656;11.302;2023-05-11T04:45:59;97748.72;;;18.57;58.29
33163;BME280;29282;45.656;11.302;2023-05-11T04:48:25;97753.41;;;18.57;58.23
33163;BME280;29282;45.656;11.302;2023-05-11T04:50:52;97754.19;;;18.57;58.08
33163;BME280;29282;45.656;11.302;2023-05-11T04:53:18;97752.28;;;18.58;58.12
33163;BME280;29282;45.656;11.302;2023-05-11T04:55:44;97754.19;;;18.57;58.13
33163;BME280;29282;45.656;11.302;2023-05-11T04:58:12;97753.88;;;18.59;58.29
33163;BME280;29282;45.656;11.302;2023-05-11T05:00:38;97756.94;;;18.57;58.26
33163;BME280;29282;45.656;11.302;2023-05-11T05:03:03;97748.72;;;18.57;58.23
33163;BME280;29282;45.656;11.302;2023-05-11T05:05:29;97746.78;;;18.58;58.36
33163;BME280;29282;45.656;11.302;2023-05-11T05:07:54;97752.28;;;18.58;58.44
33163;BME280;29282;45.656;11.302;2023-05-11T05:10:20;97743.22;;;18.57;58.43
33163;BME280;29282;45.656;11.302;2023-05-11T05:12:46;97749.88;;;18.56;58.29
33163;BME280;29282;45.656;11.302;2023-05-11T05:15:12;97747.13;;;18.56;58.40
33163;BME280;29282;45.656;11.302;2023-05-11T05:17:37;97747.13;;;18.56;58.39
33163;BME280;29282;45.656;11.302;2023-05-11T05:20:04;97747.91;;;18.57;58.31
33163;BME280;29282;45.656;11.302;2023-05-11T05:22:29;97739.69;;;18.57;58.18
33163;BME280;29282;45.656;11.302;2023-05-11T05:24:56;97736.16;;;18.56;58.50
33163;BME280;29282;45.656;11.302;2023-05-11T05:27:21;97733.41;;;18.56;58.47
33163;BME280;29282;45.656;11.302;2023-05-11T05:29:47;97733.41;;;18.56;58.51
33163;BME280;29282;45.656;11.302;2023-05-11T05:32:13;97734.19;;;18.57;58.56
33163;BME280;29282;45.656;11.302;2023-05-11T05:34:38;97730.66;;;18.56;58.34
33163;BME280;29282;45.656;11.302;2023-05-11T05:37:04;97717.31;;;18.54;58.40
33163;BME280;29282;45.656;11.302;2023-05-11T05:39:29;97720.84;;;18.55;58.48
33163;BME280;29282;45.656;11.302;2023-05-11T05:41:55;97729.97;;;18.59;58.59
33163;BME280;29282;45.656;11.302;2023-05-11T05:44:20;97735.47;;;18.59;58.60
33163;BME280;29282;45.656;11.302;2023-05-11T05:46:46;97742.53;;;18.60;58.50
33163;BME280;29282;45.656;11.302;2023-05-11T05:49:11;97738.19;;;18.59;58.65
33163;BME280;29282;45.656;11.302;2023-05-11T05:51:37;97738.19;;;18.59;58.59
33163;BME280;29282;45.656;11.302;2023-05-11T05:54:03;97735.00;;;18.57;58.66
33163;BME280;29282;45.656;11.302;2023-05-11T05:56:28;97730.66;;;18.56;58.41
33163;BME280;29282;45.656;11.302;2023-05-11T05:58:54;97729.50;;;18.57;58.76
33163;BME280;29282;45.656;11.302;2023-05-11T06:01:20;97726.75;;;18.57;58.67
33163;BME280;29282;45.656;11.302;2023-05-11T06:03:46;97733.41;;;18.56;58.81
33163;BME280;29282;45.656;11.302;2023-05-11T06:06:11;97740.84;;;18.55;58.71
33163;BME280;29282;45.656;11.302;2023-05-11T06:08:37;97732.63;;;18.55;58.89
33163;BME280;29282;45.656;11.302;2023-05-11T06:11:02;97740.03;;;18.55;58.72
33163;BME280;29282;45.656;11.302;2023-05-11T06:13:28;97751.03;;;18.55;58.63
33163;BME280;29282;45.656;11.302;2023-05-11T06:15:53;97746.31;;;18.55;58.77
33163;BME280;29282;45.656;11.302;2023-05-11T06:18:19;97753.75;;;18.55;58.54
33163;BME280;29282;45.656;11.302;2023-05-11T06:20:44;97751.03;;;18.55;58.56
33163;BME280;29282;45.656;11.302;2023-05-11T06:23:10;97759.25;;;18.55;58.50
33163;BME280;29282;45.656;11.302;2023-05-11T06:25:36;97760.38;;;18.54;58.65
33163;BME280;29282;45.656;11.302;2023-05-11T06:28:01;97756.50;;;18.55;58.56
33163;BME280;29282;45.656;11.302;2023-05-11T06:30:27;97764.75;;;18.55;58.68
33163;BME280;29282;45.656;11.302;2023-05-11T06:32:56;97763.94;;;18.54;58.68
33163;BME280;29282;45.656;11.302;2023-05-11T06:35:21;97767.47;;;18.55;58.38
33163;BME280;29282;45.656;11.302;2023-05-11T06:37:47;97769.44;;;18.54;58.57
33163;BME280;29282;45.656;11.302;2023-05-11T06:40:13;97767.03;;;18.53;58.69
33163;BME280;29282;45.656;11.302;2023-05-11T06:42:41;97768.28;;;18.55;58.66
33163;BME280;29282;45.656;11.302;2023-05-11T06:45:07;97765.06;;;18.53;58.66
33163;BME280;29282;45.656;11.302;2023-05-11T06:47:35;97770.56;;;18.53;58.59
33163;BME280;29282;45.656;11.302;2023-05-11T06:50:00;97769.75;;;18.53;58.34
33163;BME280;29282;45.656;11.302;2023-05-11T06:52:26;97775.25;;;18.53;58.63
33163;BME280;29282;45.656;11.302;2023-05-11T06:54:51;97765.06;;;18.53;58.43
33163;BME280;29282;45.656;11.302;2023-05-11T06:57:17;97782.31;;;18.54;58.50
33163;BME280;29282;45.656;11.302;2023-05-11T06:59:42;97784.28;;;18.53;58.54
33163;BME280;29282;45.656;11.302;2023-05-11T07:02:08;97780.72;;;18.53;58.45
33163;BME280;29282;45.656;11.302;2023-05-11T07:04:34;97780.72;;;18.53;58.40
33163;BME280;29282;45.656;11.302;2023-05-11T07:06:59;97788.16;;;18.52;58.48
33163;BME280;29282;45.656;11.302;2023-05-11T07:09:25;97782.31;;;18.54;58.60
33163;BME280;29282;45.656;11.302;2023-05-11T07:11:51;97778.78;;;18.53;58.51
33163;BME280;29282;45.656;11.302;2023-05-11T07:14:17;97774.47;;;18.52;58.39
33163;BME280;29282;45.656;11.302;2023-05-11T07:16:42;97772.50;;;18.53;58.61
33163;BME280;29282;45.656;11.302;2023-05-11T07:19:08;97778.00;;;18.53;58.59
33163;BME280;29282;45.656;11.302;2023-05-11T07:21:36;97778.00;;;18.53;58.52
33163;BME280;29282;45.656;11.302;2023-05-11T07:24:02;97775.25;;;18.53;58.36
33163;BME280;29282;45.656;11.302;2023-05-11T07:26:28;97772.50;;;18.53;58.40
33163;BME280;29282;45.656;11.302;2023-05-11T07:28:54;97771.72;;;18.52;58.43
33163;BME280;29282;45.656;11.302;2023-05-11T07:31:22;97773.66;;;18.52;58.67
33163;BME280;29282;45.656;11.302;2023-05-11T07:33:47;97764.28;;;18.53;58.63
33163;BME280;29282;45.656;11.302;2023-05-11T07:36:13;97768.19;;;18.52;58.48
33163;BME280;29282;45.656;11.302;2023-05-11T07:38:38;97765.44;;;18.52;58.42
33163;BME280;29282;45.656;11.302;2023-05-11T07:41:04;97766.22;;;18.52;58.41
33163;BME280;29282;45.656;11.302;2023-05-11T07:43:29;97758.34;;;18.51;58.50
33163;BME280;29282;45.656;11.302;2023-05-11T07:45:55;97761.91;;;18.51;58.46
33163;BME280;29282;45.656;11.302;2023-05-11T07:48:20;97761.91;;;18.51;58.46
33163;BME280;29282;45.656;11.302;2023-05-11T07:50:46;97769.31;;;18.51;58.45
33163;BME280;29282;45.656;11.302;2023-05-11T07:53:15;97769.31;;;18.51;58.57
33163;BME280;29282;45.656;11.302;2023-05-11T07:55:40;97766.59;;;18.51;58.57
33163;BME280;29282;45.656;11.302;2023-05-11T07:58:06;97772.88;;;18.51;58.33
33163;BME280;29282;45.656;11.302;2023-05-11T08:00:32;97772.06;;;18.51;58.34
33163;BME280;29282;45.656;11.302;2023-05-11T08:02:58;97778.69;;;18.50;58.31
33163;BME280;29282;45.656;11.302;2023-05-11T08:05:23;97769.31;;;18.51;58.38
33163;BME280;29282;45.656;11.302;2023-05-11T08:07:49;97774.81;;;18.51;58.58
33163;BME280;29282;45.656;11.302;2023-05-11T08:10:14;97779.16;;;18.52;58.48
33163;BME280;29282;45.656;11.302;2023-05-11T08:12:40;97777.56;;;18.51;58.49
33163;BME280;29282;45.656;11.302;2023-05-11T08:15:06;97777.56;;;18.51;58.44
33163;BME280;29282;45.656;11.302;2023-05-11T08:17:32;97775.94;;;18.50;58.33
33163;BME280;29282;45.656;11.302;2023-05-11T08:19:57;97785.31;;;18.49;58.35
33163;BME280;29282;45.656;11.302;2023-05-11T08:22:23;97779.84;;;18.49;58.39
33163;BME280;29282;45.656;11.302;2023-05-11T08:24:49;97786.91;;;18.50;58.51
33163;BME280;29282;45.656;11.302;2023-05-11T08:27:17;97787.72;;;18.50;58.41
33163;BME280;29282;45.656;11.302;2023-05-11T08:29:43;97784.97;;;18.50;58.44
33163;BME280;29282;45.656;11.302;2023-05-11T08:32:08;97787.72;;;18.50;58.56
33163;BME280;29282;45.656;11.302;2023-05-11T08:34:33;97788.06;;;18.49;58.43
33163;BME280;29282;45.656;11.302;2023-05-11T08:36:59;97787.72;;;18.50;58.37
33163;BME280;29282;45.656;11.302;2023-05-11T08:39:28;97786.13;;;18.49;58.28
33163;BME280;29282;45.656;11.302;2023-05-11T08:41:56;97786.91;;;18.50;58.33
33163;BME280;29282;45.656;11.302;2023-05-11T08:44:25;97782.59;;;18.49;58.49
33163;BME280;29282;45.656;11.302;2023-05-11T08:46:52;97784.16;;;18.50;58.30
33163;BME280;29282;45.656;11.302;2023-05-11T08:49:18;97779.84;;;18.49;58.33
33163;BME280;29282;45.656;11.302;2023-05-11T08:51:44;97782.59;;;18.49;58.24
33163;BME280;29282;45.656;11.302;2023-05-11T08:54:10;97781.44;;;18.50;58.26
33163;BME280;29282;45.656;11.302;2023-05-11T08:56:39;97776.31;;;18.48;58.33
33163;BME280;29282;45.656;11.302;2023-05-11T08:59:06;97780.63;;;18.49;58.47
33163;BME280;29282;45.656;11.302;2023-05-11T09:01:34;97779.03;;;18.48;58.58
33163;BME280;29282;45.656;11.302;2023-05-11T09:04:00;97773.56;;;18.48;58.44
33163;BME280;29282;45.656;11.302;2023-05-11T09:06:26;97776.31;;;18.48;58.26
33163;BME280;29282;45.656;11.302;2023-05-11T09:08:52;97770.03;;;18.48;58.42
33163;BME280;29282;45.656;11.302;2023-05-11T09:11:19;97767.28;;;18.48;58.42
33163;BME280;29282;45.656;11.302;2023-05-11T09:13:45;97774.34;;;18.49;58.27
33163;BME280;29282;45.656;11.302;2023-05-11T09:16:10;97773.56;;;18.48;58.37
33163;BME280;29282;45.656;11.302;2023-05-11T09:18:49;97770.81;;;18.48;58.20
33163;BME280;29282;45.656;11.302;2023-05-11T09:21:15;97773.56;;;18.48;58.20
33163;BME280;29282;45.656;11.302;2023-05-11T09:23:40;97772.75;;;18.48;58.38
33163;BME280;29282;45.656;11.302;2023-05-11T09:26:13;97775.50;;;18.48;58.32
33163;BME280;29282;45.656;11.302;2023-05-11T09:28:47;97770.03;;;18.48;58.24
33163;BME280;29282;45.656;11.302;2023-05-11T09:34:20;97773.56;;;18.48;58.44
33163;BME280;29282;45.656;11.302;2023-05-11T09:36:48;97773.56;;;18.48;58.42
33163;BME280;29282;45.656;11.302;2023-05-11T09:39:14;97769.19;;;18.47;58.23
33163;BME280;29282;45.656;11.302;2023-05-11T09:41:40;97773.56;;;18.48;58.35
33163;BME280;29282;45.656;11.302;2023-05-11T09:44:07;97775.50;;;18.48;58.30
33163;BME280;29282;45.656;11.302;2023-05-11T09:46:40;97777.44;;;18.47;58.17
33163;BME280;29282;45.656;11.302;2023-05-11T09:49:07;97778.25;;;18.48;58.15
33163;BME280;29282;45.656;11.302;2023-05-11T09:51:34;97781.00;;;18.48;58.38
33163;BME280;29282;45.656;11.302;2023-05-11T09:54:02;97779.03;;;18.48;58.23
33163;BME280;29282;45.656;11.302;2023-05-11T09:59:14;97779.84;;;18.49;58.58
33163;BME280;29282;45.656;11.302;2023-05-11T10:01:40;97773.56;;;18.48;58.34
33163;BME280;29282;45.656;11.302;2023-05-11T10:04:05;97777.09;;;18.49;58.21
33163;BME280;29282;45.656;11.302;2023-05-11T10:06:49;97781.78;;;18.48;58.43
33163;BME280;29282;45.656;11.302;2023-05-11T10:09:18;97774.34;;;18.49;58.30
33163;BME280;29282;45.656;11.302;2023-05-11T10:11:48;97772.75;;;18.48;58.34
33163;BME280;29282;45.656;11.302;2023-05-11T10:14:15;97768.88;;;18.49;58.42
33163;BME280;29282;45.656;11.302;2023-05-11T10:16:43;97768.88;;;18.49;58.33
33163;BME280;29282;45.656;11.302;2023-05-11T10:19:10;97775.50;;;18.48;58.14
33163;BME280;29282;45.656;11.302;2023-05-11T10:21:37;97767.28;;;18.48;58.30
33163;BME280;29282;45.656;11.302;2023-05-11T10:24:03;97768.06;;;18.48;58.33
33163;BME280;29282;45.656;11.302;2023-05-11T10:26:32;97761.78;;;18.48;58.27
33163;BME280;29282;45.656;11.302;2023-05-11T10:29:00;97763.38;;;18.49;58.38
33163;BME280;29282;45.656;11.302;2023-05-11T10:31:28;97764.97;;;18.50;58.36
33163;BME280;29282;45.656;11.302;2023-05-11T10:33:54;97765.34;;;18.48;58.28
33163;BME280;29282;45.656;11.302;2023-05-11T10:36:23;97757.09;;;18.48;58.34
33163;BME280;29282;45.656;11.302;2023-05-11T10:38:52;97754.34;;;18.48;58.31
33163;BME280;29282;45.656;11.302;2023-05-11T10:44:06;97762.59;;;18.48;58.36
33163;BME280;29282;45.656;11.302;2023-05-11T10:47:01;97754.34;;;18.48;58.27
33163;BME280;29282;45.656;11.302;2023-05-11T10:49:47;97754.34;;;18.48;58.42
33163;BME280;29282;45.656;11.302;2023-05-11T10:58:47;97750.81;;;18.48;58.39
33163;BME280;29282;45.656;11.302;2023-05-11T11:01:37;97757.09;;;18.48;58.43
33163;BME280;29282;45.656;11.302;2023-05-11T11:04:06;97754.69;;;18.47;58.44
33163;BME280;29282;45.656;11.302;2023-05-11T11:06:35;97756.31;;;18.48;58.47
33163;BME280;29282;45.656;11.302;2023-05-11T11:09:12;97756.31;;;18.48;58.41
33163;BME280;29282;45.656;11.302;2023-05-11T11:11:46;97754.34;;;18.48;58.29
33163;BME280;29282;45.656;11.302;2023-05-11T11:14:16;97767.28;;;18.48;58.29
33163;BME280;29282;45.656;11.302;2023-05-11T11:17:23;97761.78;;;18.48;58.34
33163;BME280;29282;45.656;11.302;2023-05-11T11:19:51;97763.72;;;18.47;58.41
33163;BME280;29282;45.656;11.302;2023-05-11T11:25:09;97771.25;;;18.50;58.36
33163;BME280;29282;45.656;11.302;2023-05-11T11:30:20;97764.97;;;18.50;58.40
33163;BME280;29282;45.656;11.302;2023-05-11T11:32:47;97762.69;;;18.52;58.46
33163;BME280;29282;45.656;11.302;2023-05-11T11:38:08;97767.47;;;18.55;59.00
33163;BME280;29282;45.656;11.302;2023-05-11T11:40:41;97765.88;;;18.54;59.03
33163;BME280;29282;45.656;11.302;2023-05-11T11:43:21;97761.53;;;18.53;59.17
33163;BME280;29282;45.656;11.302;2023-05-11T11:51:00;97761.53;;;18.53;59.07
33163;BME280;29282;45.656;11.302;2023-05-11T11:56:04;97759.16;;;18.51;58.96
33163;BME280;29282;45.656;11.302;2023-05-11T12:01:08;97758.00;;;18.52;59.19
33163;BME280;29282;45.656;11.302;2023-05-11T12:03:37;97754.47;;;18.52;59.09
33163;BME280;29282;45.656;11.302;2023-05-11T12:06:04;97753.66;;;18.51;59.28
33163;BME280;29282;45.656;11.302;2023-05-11T12:08:30;97750.13;;;18.51;59.03
33163;BME280;29282;45.656;11.302;2023-05-11T12:10:57;97748.19;;;18.51;59.19
33163;BME280;29282;45.656;11.302;2023-05-11T12:13:24;97748.97;;;18.52;59.05
33163;BME280;29282;45.656;11.302;2023-05-11T12:15:49;97747.38;;;18.51;59.17
33163;BME280;29282;45.656;11.302;2023-05-11T12:18:21;97748.19;;;18.51;58.99
33163;BME280;29282;45.656;11.302;2023-05-11T12:20:47;97748.50;;;18.50;59.11
33163;BME280;29282;45.656;11.302;2023-05-11T12:23:12;97752.88;;;18.51;59.13
33163;BME280;29282;45.656;11.302;2023-05-11T12:25:39;97743.03;;;18.50;59.10
33163;BME280;29282;45.656;11.302;2023-05-11T12:28:05;97747.38;;;18.51;59.24
33163;BME280;29282;45.656;11.302;2023-05-11T12:30:32;97747.38;;;18.51;59.10
33163;BME280;29282;45.656;11.302;2023-05-11T12:32:59;97740.28;;;18.50;59.20
33163;BME280;29282;45.656;11.302;2023-05-11T12:35:30;97745.78;;;18.50;59.07
33163;BME280;29282;45.656;11.302;2023-05-11T12:37:57;97735.59;;;18.50;59.22
33163;BME280;29282;45.656;11.302;2023-05-11T12:40:23;97738.34;;;18.50;59.04
33163;BME280;29282;45.656;11.302;2023-05-11T12:42:59;97743.81;;;18.50;58.88
33163;BME280;29282;45.656;11.302;2023-05-11T12:45:25;97745.44;;;18.51;59.14
33163;BME280;29282;45.656;11.302;2023-05-11T12:47:53;97748.19;;;18.51;58.91
33163;BME280;29282;45.656;11.302;2023-05-11T12:50:20;97748.97;;;18.52;59.28
33163;BME280;29282;45.656;11.302;2023-05-11T12:52:46;97752.50;;;18.52;59.36
33163;BME280;29282;45.656;11.302;2023-05-11T12:55:13;97747.03;;;18.52;59.81
33163;BME280;29282;45.656;11.302;2023-05-11T12:57:41;97752.50;;;18.52;59.71
33163;BME280;29282;45.656;11.302;2023-05-11T13:00:12;97750.56;;;18.53;59.51
33163;BME280;29282;45.656;11.302;2023-05-11T13:02:56;97748.59;;;18.53;59.69
33163;BME280;29282;45.656;11.302;2023-05-11T13:05:24;97753.31;;;18.53;59.55
33163;BME280;29282;45.656;11.302;2023-05-11T13:08:00;97758.78;;;18.53;59.73
33163;BME280;29282;45.656;11.302;2023-05-11T13:10:26;97747.81;;;18.53;59.46
33163;BME280;29282;45.656;11.302;2023-05-11T13:12:52;97754.88;;;18.54;59.55
33163;BME280;29282;45.656;11.302;2023-05-11T13:15:20;97750.22;;;18.54;59.53
33163;BME280;29282;45.656;11.302;2023-05-11T13:17:46;97748.59;;;18.53;59.73
33163;BME280;29282;45.656;11.302;2023-05-11T13:22:46;97743.13;;;18.53;59.66
33163;BME280;29282;45.656;11.302;2023-05-11T13:25:17;97742.31;;;18.53;59.70
33163;BME280;29282;45.656;11.302;2023-05-11T13:27:43;97743.13;;;18.53;59.93
33163;BME280;29282;45.656;11.302;2023-05-11T13:30:09;97747.81;;;18.53;59.79
33163;BME280;29282;45.656;11.302;2023-05-11T13:32:35;97741.53;;;18.52;59.91
33163;BME280;29282;45.656;11.302;2023-05-11T13:35:05;97747.03;;;18.52;59.97
33163;BME280;29282;45.656;11.302;2023-05-11T13:37:31;97745.06;;;18.53;59.74